sensor_id;sensor_type;location;lat;lon;timestamp;P1;durP1;ratioP1;P2;durP2;ratioP2
80679;SDS011;70043;51.982;-8.514;2023-06-04T00:00:42;4.90;;;1.35;;
80679;SDS011;70043;51.982;-8.514;2023-06-04T00:03:10;3.20;;;1.33;;
80679;SDS011;70043;51.982;-8.514;2023-06-04T00:05:38;2.88;;;0.63;;
80679;SDS011;70043;51.982;-8.514;2023-06-04T00:08:09;2.35;;;1.20;;
80679;SDS011;70043;51.982;-8.514;2023-06-04T00:10:37;5.35;;;1.92;;
80679;SDS011;70043;51.982;-8.514;2023-06-04T00:13:06;2.40;;;1.13;;
80679;SDS011;70043;51.982;-8.514;2023-06-04T00:15:34;7.05;;;1.80;;
80679;SDS011;70043;51.982;-8.514;2023-06-04T00:18:03;3.58;;;0.90;;
80679;SDS011;70043;51.982;-8.514;2023-06-04T00:20:31;1.30;;;1.10;;
80679;SDS011;70043;51.982;-8.514;2023-06-04T00:22:59;3.30;;;1.65;;
80679;SDS011;70043;51.982;-8.514;2023-06-04T00:25:27;3.88;;;2.63;;
80679;SDS011;70043;51.982;-8.514;2023-06-04T00:27:55;1.65;;;1.15;;
80679;SDS011;70043;51.982;-8.514;2023-06-04T00:30:23;1.30;;;0.80;;
80679;SDS011;70043;51.982;-8.514;2023-06-04T00:32:51;2.75;;;1.13;;
80679;SDS011;70043;51.982;-8.514;2023-06-04T00:35:20;2.42;;;1.13;;
80679;SDS011;70043;51.982;-8.514;2023-06-04T00:37:48;5.50;;;1.08;;
80679;SDS011;70043;51.982;-8.514;2023-06-04T00:40:16;5.78;;;1.25;;
80679;SDS011;70043;51.982;-8.514;2023-06-04T00:42:45;2.78;;;1.10;;
80679;SDS011;70043;51.982;-8.514;2023-06-04T00:45:16;3.78;;;1.02;;
80679;SDS011;70043;51.982;-8.514;2023-06-04T00:47:45;2.88;;;1.10;;
80679;SDS011;70043;51.982;-8.514;2023-06-04T00:50:13;2.50;;;1.00;;
80679;SDS011;70043;51.982;-8.514;2023-06-04T00:52:42;3.05;;;0.88;;
80679;SDS011;70043;51.982;-8.514;2023-06-04T00:55:10;3.30;;;1.17;;
80679;SDS011;70043;51.982;-8.514;2023-06-04T00:57:38;2.08;;;1.08;;
80679;SDS011;70043;51.982;-8.514;2023-06-04T01:00:06;3.85;;;1.27;;
80679;SDS011;70043;51.982;-8.514;2023-06-04T01:02:35;3.42;;;1.13;;
80679;SDS011;70043;51.982;-8.514;2023-06-04T01:05:19;2.45;;;1.20;;
80679;SDS011;70043;51.982;-8.514;2023-06-04T01:07:58;2.08;;;0.90;;
80679;SDS011;70043;51.982;-8.514;2023-06-04T01:10:26;8.23;;;1.05;;
80679;SDS011;70043;51.982;-8.514;2023-06-04T01:12:54;4.38;;;1.13;;
80679;SDS011;70043;51.982;-8.514;2023-06-04T01:15:21;1.83;;;0.98;;
80679;SDS011;70043;51.982;-8.514;2023-06-04T01:17:52;2.88;;;1.20;;
80679;SDS011;70043;51.982;-8.514;2023-06-04T01:20:29;1.08;;;0.40;;
80679;SDS011;70043;51.982;-8.514;2023-06-04T01:23:17;0.98;;;0.60;;
80679;SDS011;70043;51.982;-8.514;2023-06-04T01:25:58;1.95;;;0.95;;
80679;SDS011;70043;51.982;-8.514;2023-06-04T01:28:30;9.77;;;1.00;;
80679;SDS011;70043;51.982;-8.514;2023-06-04T01:31:00;8.45;;;1.58;;
80679;SDS011;70043;51.982;-8.514;2023-06-04T01:33:28;1.38;;;0.85;;
80679;SDS011;70043;51.982;-8.514;2023-06-04T01:35:58;3.15;;;1.15;;
80679;SDS011;70043;51.982;-8.514;2023-06-04T01:38:28;5.22;;;1.05;;
80679;SDS011;70043;51.982;-8.514;2023-06-04T01:40:56;1.90;;;1.30;;
80679;SDS011;70043;51.982;-8.514;2023-06-04T01:43:27;3.13;;;0.90;;
80679;SDS011;70043;51.982;-8.514;2023-06-04T01:45:55;3.90;;;0.93;;
80679;SDS011;70043;51.982;-8.514;2023-06-04T01:48:23;5.10;;;1.30;;
80679;SDS011;70043;51.982;-8.514;2023-06-04T01:50:52;1.52;;;0.93;;
80679;SDS011;70043;51.982;-8.514;2023-06-04T01:53:20;4.07;;;1.08;;
80679;SDS011;70043;51.982;-8.514;2023-06-04T01:55:50;24.92;;;3.95;;
80679;SDS011;70043;51.982;-8.514;2023-06-04T01:58:19;7.75;;;1.50;;
80679;SDS011;70043;51.982;-8.514;2023-06-04T02:00:52;4.80;;;1.20;;
80679;SDS011;70043;51.982;-8.514;2023-06-04T02:03:20;3.92;;;1.00;;
80679;SDS011;70043;51.982;-8.514;2023-06-04T02:05:48;3.58;;;1.70;;
80679;SDS011;70043;51.982;-8.514;2023-06-04T02:08:16;4.72;;;0.88;;
80679;SDS011;70043;51.982;-8.514;2023-06-04T02:10:46;3.90;;;0.93;;
80679;SDS011;70043;51.982;-8.514;2023-06-04T02:13:16;2.72;;;1.00;;
80679;SDS011;70043;51.982;-8.514;2023-06-04T02:15:44;1.35;;;0.65;;
80679;SDS011;70043;51.982;-8.514;2023-06-04T02:18:12;4.15;;;1.00;;
80679;SDS011;70043;51.982;-8.514;2023-06-04T02:20:42;3.13;;;1.10;;
80679;SDS011;70043;51.982;-8.514;2023-06-04T02:23:10;3.97;;;1.35;;
80679;SDS011;70043;51.982;-8.514;2023-06-04T02:25:39;6.85;;;1.27;;
80679;SDS011;70043;51.982;-8.514;2023-06-04T02:28:09;2.42;;;0.90;;
80679;SDS011;70043;51.982;-8.514;2023-06-04T02:30:40;2.53;;;1.00;;
80679;SDS011;70043;51.982;-8.514;2023-06-04T02:33:08;1.70;;;0.82;;
80679;SDS011;70043;51.982;-8.514;2023-06-04T02:35:36;5.75;;;1.25;;
80679;SDS011;70043;51.982;-8.514;2023-06-04T02:38:05;1.70;;;1.00;;
80679;SDS011;70043;51.982;-8.514;2023-06-04T02:40:33;1.30;;;0.90;;
80679;SDS011;70043;51.982;-8.514;2023-06-04T02:43:02;2.72;;;0.88;;
80679;SDS011;70043;51.982;-8.514;2023-06-04T02:45:30;5.55;;;1.00;;
80679;SDS011;70043;51.982;-8.514;2023-06-04T02:48:01;3.58;;;1.25;;
80679;SDS011;70043;51.982;-8.514;2023-06-04T02:50:29;2.88;;;1.30;;
80679;SDS011;70043;51.982;-8.514;2023-06-04T02:52:57;3.65;;;1.30;;
80679;SDS011;70043;51.982;-8.514;2023-06-04T02:55:31;3.08;;;0.68;;
80679;SDS011;70043;51.982;-8.514;2023-06-04T02:58:01;3.85;;;0.95;;
80679;SDS011;70043;51.982;-8.514;2023-06-04T03:00:29;3.20;;;1.30;;
80679;SDS011;70043;51.982;-8.514;2023-06-04T03:02:56;3.42;;;1.25;;
80679;SDS011;70043;51.982;-8.514;2023-06-04T03:05:28;3.40;;;1.00;;
80679;SDS011;70043;51.982;-8.514;2023-06-04T03:07:58;3.03;;;1.20;;
80679;SDS011;70043;51.982;-8.514;2023-06-04T03:10:27;4.50;;;1.15;;
80679;SDS011;70043;51.982;-8.514;2023-06-04T03:12:56;1.75;;;0.90;;
80679;SDS011;70043;51.982;-8.514;2023-06-04T03:15:24;1.55;;;0.75;;
80679;SDS011;70043;51.982;-8.514;2023-06-04T03:17:52;3.92;;;1.15;;
80679;SDS011;70043;51.982;-8.514;2023-06-04T03:20:20;3.47;;;1.25;;
80679;SDS011;70043;51.982;-8.514;2023-06-04T03:22:50;4.68;;;1.20;;
80679;SDS011;70043;51.982;-8.514;2023-06-04T03:25:20;2.33;;;1.00;;
80679;SDS011;70043;51.982;-8.514;2023-06-04T03:27:48;2.65;;;1.00;;
80679;SDS011;70043;51.982;-8.514;2023-06-04T03:30:16;3.28;;;1.05;;
80679;SDS011;70043;51.982;-8.514;2023-06-04T03:32:44;3.40;;;1.05;;
80679;SDS011;70043;51.982;-8.514;2023-06-04T03:35:12;2.42;;;0.98;;
80679;SDS011;70043;51.982;-8.514;2023-06-04T03:37:41;4.07;;;1.25;;
80679;SDS011;70043;51.982;-8.514;2023-06-04T03:40:11;2.53;;;1.23;;
80679;SDS011;70043;51.982;-8.514;2023-06-04T03:42:40;3.50;;;1.30;;
80679;SDS011;70043;51.982;-8.514;2023-06-04T03:45:10;1.67;;;1.10;;
80679;SDS011;70043;51.982;-8.514;2023-06-04T03:47:39;3.55;;;1.23;;
80679;SDS011;70043;51.982;-8.514;2023-06-04T03:50:08;4.53;;;1.65;;
80679;SDS011;70043;51.982;-8.514;2023-06-04T03:52:38;1.60;;;1.05;;
80679;SDS011;70043;51.982;-8.514;2023-06-04T03:55:06;2.38;;;1.13;;
80679;SDS011;70043;51.982;-8.514;2023-06-04T03:57:37;1.50;;;0.70;;
80679;SDS011;70043;51.982;-8.514;2023-06-04T04:00:06;4.13;;;1.27;;
80679;SDS011;70043;51.982;-8.514;2023-06-04T04:02:40;1.60;;;1.08;;
80679;SDS011;70043;51.982;-8.514;2023-06-04T04:05:08;5.75;;;1.48;;
80679;SDS011;70043;51.982;-8.514;2023-06-04T04:07:37;3.22;;;1.30;;
80679;SDS011;70043;51.982;-8.514;2023-06-04T04:10:05;3.95;;;1.23;;
80679;SDS011;70043;51.982;-8.514;2023-06-04T04:12:42;3.53;;;1.38;;
80679;SDS011;70043;51.982;-8.514;2023-06-04T04:15:10;2.42;;;1.02;;
80679;SDS011;70043;51.982;-8.514;2023-06-04T04:17:38;3.10;;;1.17;;
80679;SDS011;70043;51.982;-8.514;2023-06-04T04:20:06;1.55;;;1.10;;
80679;SDS011;70043;51.982;-8.514;2023-06-04T04:22:34;1.60;;;0.93;;
80679;SDS011;70043;51.982;-8.514;2023-06-04T04:25:06;5.05;;;1.15;;
80679;SDS011;70043;51.982;-8.514;2023-06-04T04:27:35;4.88;;;1.25;;
80679;SDS011;70043;51.982;-8.514;2023-06-04T04:30:08;2.00;;;0.88;;
80679;SDS011;70043;51.982;-8.514;2023-06-04T04:32:37;3.83;;;1.23;;
80679;SDS011;70043;51.982;-8.514;2023-06-04T04:35:06;4.05;;;1.33;;
80679;SDS011;70043;51.982;-8.514;2023-06-04T04:37:34;3.50;;;1.30;;
80679;SDS011;70043;51.982;-8.514;2023-06-04T04:40:06;2.58;;;1.05;;
80679;SDS011;70043;51.982;-8.514;2023-06-04T04:42:37;2.45;;;1.20;;
80679;SDS011;70043;51.982;-8.514;2023-06-04T04:45:05;5.32;;;1.30;;
80679;SDS011;70043;51.982;-8.514;2023-06-04T04:47:40;4.03;;;1.13;;
80679;SDS011;70043;51.982;-8.514;2023-06-04T04:50:08;2.05;;;0.98;;
80679;SDS011;70043;51.982;-8.514;2023-06-04T04:52:36;5.43;;;1.00;;
80679;SDS011;70043;51.982;-8.514;2023-06-04T04:55:07;3.28;;;1.35;;
80679;SDS011;70043;51.982;-8.514;2023-06-04T04:57:37;3.08;;;1.23;;
80679;SDS011;70043;51.982;-8.514;2023-06-04T05:00:07;3.78;;;0.93;;
80679;SDS011;70043;51.982;-8.514;2023-06-04T05:02:37;5.20;;;1.52;;
80679;SDS011;70043;51.982;-8.514;2023-06-04T05:05:05;2.03;;;1.17;;
80679;SDS011;70043;51.982;-8.514;2023-06-04T05:07:33;2.15;;;1.27;;
80679;SDS011;70043;51.982;-8.514;2023-06-04T05:10:01;4.93;;;1.27;;
80679;SDS011;70043;51.982;-8.514;2023-06-04T05:12:29;4.22;;;0.98;;
80679;SDS011;70043;51.982;-8.514;2023-06-04T05:14:59;3.53;;;1.27;;
80679;SDS011;70043;51.982;-8.514;2023-06-04T05:17:31;2.47;;;1.55;;
80679;SDS011;70043;51.982;-8.514;2023-06-04T05:20:00;5.28;;;1.10;;
80679;SDS011;70043;51.982;-8.514;2023-06-04T05:22:29;1.55;;;0.88;;
80679;SDS011;70043;51.982;-8.514;2023-06-04T05:24:58;2.60;;;1.23;;
80679;SDS011;70043;51.982;-8.514;2023-06-04T05:27:25;2.42;;;1.20;;
80679;SDS011;70043;51.982;-8.514;2023-06-04T05:29:54;2.90;;;1.30;;
80679;SDS011;70043;51.982;-8.514;2023-06-04T05:32:22;5.60;;;1.35;;
80679;SDS011;70043;51.982;-8.514;2023-06-04T05:34:54;1.80;;;1.35;;
80679;SDS011;70043;51.982;-8.514;2023-06-04T05:37:23;4.43;;;1.17;;
80679;SDS011;70043;51.982;-8.514;2023-06-04T05:39:52;7.13;;;1.40;;
80679;SDS011;70043;51.982;-8.514;2023-06-04T05:42:20;1.38;;;0.65;;
80679;SDS011;70043;51.982;-8.514;2023-06-04T05:44:49;2.63;;;1.10;;
80679;SDS011;70043;51.982;-8.514;2023-06-04T05:47:21;4.22;;;1.27;;
80679;SDS011;70043;51.982;-8.514;2023-06-04T05:49:49;2.35;;;1.33;;
80679;SDS011;70043;51.982;-8.514;2023-06-04T05:52:19;3.50;;;1.35;;
80679;SDS011;70043;51.982;-8.514;2023-06-04T05:54:47;3.70;;;0.82;;
80679;SDS011;70043;51.982;-8.514;2023-06-04T05:57:15;2.50;;;1.23;;
80679;SDS011;70043;51.982;-8.514;2023-06-04T05:59:43;1.63;;;0.93;;
80679;SDS011;70043;51.982;-8.514;2023-06-04T06:02:13;3.08;;;1.63;;
80679;SDS011;70043;51.982;-8.514;2023-06-04T06:04:41;2.67;;;1.50;;
80679;SDS011;70043;51.982;-8.514;2023-06-04T06:07:09;3.10;;;1.55;;
80679;SDS011;70043;51.982;-8.514;2023-06-04T06:09:39;4.80;;;1.63;;
80679;SDS011;70043;51.982;-8.514;2023-06-04T06:12:07;5.50;;;1.27;;
80679;SDS011;70043;51.982;-8.514;2023-06-04T06:14:35;4.43;;;1.85;;
80679;SDS011;70043;51.982;-8.514;2023-06-04T06:17:03;3.50;;;1.55;;
80679;SDS011;70043;51.982;-8.514;2023-06-04T06:19:31;4.50;;;1.52;;
80679;SDS011;70043;51.982;-8.514;2023-06-04T06:21:59;5.50;;;1.90;;
80679;SDS011;70043;51.982;-8.514;2023-06-04T06:24:28;3.88;;;1.88;;
80679;SDS011;70043;51.982;-8.514;2023-06-04T06:26:59;4.43;;;1.48;;
80679;SDS011;70043;51.982;-8.514;2023-06-04T06:29:28;3.17;;;1.98;;
80679;SDS011;70043;51.982;-8.514;2023-06-04T06:31:56;4.70;;;1.70;;
80679;SDS011;70043;51.982;-8.514;2023-06-04T06:36:57;3.78;;;1.50;;
80679;SDS011;70043;51.982;-8.514;2023-06-04T06:39:25;3.45;;;1.80;;
80679;SDS011;70043;51.982;-8.514;2023-06-04T06:41:54;2.75;;;1.70;;
80679;SDS011;70043;51.982;-8.514;2023-06-04T06:44:23;3.85;;;2.03;;
80679;SDS011;70043;51.982;-8.514;2023-06-04T06:46:51;1.73;;;1.23;;
80679;SDS011;70043;51.982;-8.514;2023-06-04T06:49:19;4.05;;;1.25;;
80679;SDS011;70043;51.982;-8.514;2023-06-04T06:51:46;3.25;;;1.55;;
80679;SDS011;70043;51.982;-8.514;2023-06-04T06:54:14;2.15;;;1.30;;
80679;SDS011;70043;51.982;-8.514;2023-06-04T06:56:42;2.95;;;1.10;;
80679;SDS011;70043;51.982;-8.514;2023-06-04T06:59:10;2.20;;;1.23;;
80679;SDS011;70043;51.982;-8.514;2023-06-04T07:01:42;4.22;;;1.63;;
80679;SDS011;70043;51.982;-8.514;2023-06-04T07:04:09;4.55;;;2.05;;
80679;SDS011;70043;51.982;-8.514;2023-06-04T07:06:37;4.75;;;1.92;;
80679;SDS011;70043;51.982;-8.514;2023-06-04T07:09:06;2.28;;;1.38;;
80679;SDS011;70043;51.982;-8.514;2023-06-04T07:11:34;4.57;;;2.22;;
80679;SDS011;70043;51.982;-8.514;2023-06-04T07:14:03;5.10;;;1.55;;
80679;SDS011;70043;51.982;-8.514;2023-06-04T07:16:33;5.13;;;1.80;;
80679;SDS011;70043;51.982;-8.514;2023-06-04T07:19:03;3.28;;;1.33;;
80679;SDS011;70043;51.982;-8.514;2023-06-04T07:21:31;2.35;;;1.48;;
80679;SDS011;70043;51.982;-8.514;2023-06-04T07:24:02;4.03;;;1.83;;
80679;SDS011;70043;51.982;-8.514;2023-06-04T07:26:31;4.13;;;1.52;;
80679;SDS011;70043;51.982;-8.514;2023-06-04T07:28:59;2.20;;;1.13;;
80679;SDS011;70043;51.982;-8.514;2023-06-04T07:31:28;5.75;;;2.35;;
80679;SDS011;70043;51.982;-8.514;2023-06-04T07:33:55;5.38;;;1.85;;
80679;SDS011;70043;51.982;-8.514;2023-06-04T07:36:25;3.83;;;2.03;;
80679;SDS011;70043;51.982;-8.514;2023-06-04T07:38:53;3.75;;;1.73;;
80679;SDS011;70043;51.982;-8.514;2023-06-04T07:41:21;2.25;;;2.03;;
80679;SDS011;70043;51.982;-8.514;2023-06-04T07:43:50;3.42;;;1.80;;
80679;SDS011;70043;51.982;-8.514;2023-06-04T07:46:18;3.40;;;2.40;;
80679;SDS011;70043;51.982;-8.514;2023-06-04T07:48:48;5.82;;;1.90;;
80679;SDS011;70043;51.982;-8.514;2023-06-04T07:51:16;6.40;;;2.58;;
80679;SDS011;70043;51.982;-8.514;2023-06-04T07:53:47;4.28;;;2.00;;
80679;SDS011;70043;51.982;-8.514;2023-06-04T07:56:17;4.90;;;2.60;;
80679;SDS011;70043;51.982;-8.514;2023-06-04T07:58:45;6.93;;;2.17;;
80679;SDS011;70043;51.982;-8.514;2023-06-04T08:01:13;4.05;;;1.85;;
80679;SDS011;70043;51.982;-8.514;2023-06-04T08:03:42;4.95;;;1.73;;
80679;SDS011;70043;51.982;-8.514;2023-06-04T08:06:09;4.18;;;2.20;;
80679;SDS011;70043;51.982;-8.514;2023-06-04T08:08:41;4.65;;;2.38;;
80679;SDS011;70043;51.982;-8.514;2023-06-04T08:11:12;5.88;;;2.72;;
80679;SDS011;70043;51.982;-8.514;2023-06-04T08:13:41;10.75;;;2.80;;
80679;SDS011;70043;51.982;-8.514;2023-06-04T08:16:09;4.70;;;2.08;;
80679;SDS011;70043;51.982;-8.514;2023-06-04T08:18:41;6.90;;;2.38;;
80679;SDS011;70043;51.982;-8.514;2023-06-04T08:21:09;4.35;;;2.03;;
80679;SDS011;70043;51.982;-8.514;2023-06-04T08:23:37;10.88;;;2.15;;
80679;SDS011;70043;51.982;-8.514;2023-06-04T08:26:05;3.80;;;1.60;;
80679;SDS011;70043;51.982;-8.514;2023-06-04T08:28:35;3.00;;;1.83;;
80679;SDS011;70043;51.982;-8.514;2023-06-04T08:31:06;4.88;;;2.33;;
80679;SDS011;70043;51.982;-8.514;2023-06-04T08:33:34;4.55;;;2.25;;
80679;SDS011;70043;51.982;-8.514;2023-06-04T08:36:02;9.63;;;2.22;;
80679;SDS011;70043;51.982;-8.514;2023-06-04T08:38:33;3.70;;;2.25;;
80679;SDS011;70043;51.982;-8.514;2023-06-04T08:41:02;3.22;;;2.08;;
80679;SDS011;70043;51.982;-8.514;2023-06-04T08:43:37;3.28;;;1.95;;
80679;SDS011;70043;51.982;-8.514;2023-06-04T08:46:09;4.20;;;2.28;;
80679;SDS011;70043;51.982;-8.514;2023-06-04T08:48:37;6.68;;;3.00;;
80679;SDS011;70043;51.982;-8.514;2023-06-04T08:51:05;4.28;;;2.20;;
80679;SDS011;70043;51.982;-8.514;2023-06-04T08:53:35;4.78;;;2.35;;
80679;SDS011;70043;51.982;-8.514;2023-06-04T08:56:03;2.65;;;2.25;;
80679;SDS011;70043;51.982;-8.514;2023-06-04T08:58:31;4.05;;;2.58;;
80679;SDS011;70043;51.982;-8.514;2023-06-04T09:01:01;3.75;;;2.60;;
80679;SDS011;70043;51.982;-8.514;2023-06-04T09:03:29;8.05;;;2.33;;
80679;SDS011;70043;51.982;-8.514;2023-06-04T09:05:57;6.88;;;2.45;;
80679;SDS011;70043;51.982;-8.514;2023-06-04T09:08:26;6.28;;;2.80;;
80679;SDS011;70043;51.982;-8.514;2023-06-04T09:10:57;6.68;;;3.00;;
80679;SDS011;70043;51.982;-8.514;2023-06-04T09:13:26;7.35;;;2.75;;
80679;SDS011;70043;51.982;-8.514;2023-06-04T09:15:58;7.72;;;2.20;;
80679;SDS011;70043;51.982;-8.514;2023-06-04T09:18:28;4.20;;;2.45;;
80679;SDS011;70043;51.982;-8.514;2023-06-04T09:21:02;7.65;;;2.83;;
80679;SDS011;70043;51.982;-8.514;2023-06-04T09:23:30;5.40;;;2.22;;
80679;SDS011;70043;51.982;-8.514;2023-06-04T09:26:06;6.63;;;2.13;;
80679;SDS011;70043;51.982;-8.514;2023-06-04T09:28:35;5.78;;;2.70;;
80679;SDS011;70043;51.982;-8.514;2023-06-04T09:31:04;3.95;;;2.03;;
80679;SDS011;70043;51.982;-8.514;2023-06-04T09:33:43;4.78;;;2.88;;
80679;SDS011;70043;51.982;-8.514;2023-06-04T09:36:20;5.18;;;2.50;;
80679;SDS011;70043;51.982;-8.514;2023-06-04T09:38:49;6.53;;;2.75;;
80679;SDS011;70043;51.982;-8.514;2023-06-04T09:41:19;4.15;;;1.95;;
80679;SDS011;70043;51.982;-8.514;2023-06-04T09:43:47;3.45;;;2.42;;
80679;SDS011;70043;51.982;-8.514;2023-06-04T09:46:22;3.63;;;2.00;;
80679;SDS011;70043;51.982;-8.514;2023-06-04T09:48:58;8.25;;;2.45;;
80679;SDS011;70043;51.982;-8.514;2023-06-04T09:51:29;6.18;;;2.47;;
80679;SDS011;70043;51.982;-8.514;2023-06-04T09:54:02;4.30;;;2.35;;
80679;SDS011;70043;51.982;-8.514;2023-06-04T09:56:39;8.05;;;2.45;;
80679;SDS011;70043;51.982;-8.514;2023-06-04T09:59:09;4.15;;;2.38;;
80679;SDS011;70043;51.982;-8.514;2023-06-04T10:01:40;5.40;;;1.80;;
80679;SDS011;70043;51.982;-8.514;2023-06-04T10:04:08;4.07;;;2.28;;
80679;SDS011;70043;51.982;-8.514;2023-06-04T10:06:44;3.42;;;1.80;;
80679;SDS011;70043;51.982;-8.514;2023-06-04T10:09:17;4.68;;;2.30;;
80679;SDS011;70043;51.982;-8.514;2023-06-04T10:11:52;3.30;;;2.25;;
80679;SDS011;70043;51.982;-8.514;2023-06-04T10:14:25;7.80;;;2.28;;
80679;SDS011;70043;51.982;-8.514;2023-06-04T10:16:59;5.35;;;2.22;;
80679;SDS011;70043;51.982;-8.514;2023-06-04T10:19:27;6.75;;;2.90;;
80679;SDS011;70043;51.982;-8.514;2023-06-04T10:21:55;4.43;;;2.20;;
80679;SDS011;70043;51.982;-8.514;2023-06-04T10:24:23;6.80;;;2.20;;
80679;SDS011;70043;51.982;-8.514;2023-06-04T10:26:54;4.55;;;2.08;;
80679;SDS011;70043;51.982;-8.514;2023-06-04T10:29:21;3.20;;;1.73;;
80679;SDS011;70043;51.982;-8.514;2023-06-04T10:31:53;3.75;;;2.33;;
80679;SDS011;70043;51.982;-8.514;2023-06-04T10:34:22;4.43;;;1.85;;
80679;SDS011;70043;51.982;-8.514;2023-06-04T10:36:54;3.83;;;2.67;;
80679;SDS011;70043;51.982;-8.514;2023-06-04T10:39:25;3.53;;;2.15;;
80679;SDS011;70043;51.982;-8.514;2023-06-04T10:42:01;8.32;;;2.28;;
80679;SDS011;70043;51.982;-8.514;2023-06-04T10:44:44;5.63;;;2.22;;
80679;SDS011;70043;51.982;-8.514;2023-06-04T10:47:17;3.30;;;1.75;;
80679;SDS011;70043;51.982;-8.514;2023-06-04T10:49:48;4.60;;;1.92;;
80679;SDS011;70043;51.982;-8.514;2023-06-04T10:52:18;3.22;;;1.55;;
80679;SDS011;70043;51.982;-8.514;2023-06-04T10:55:02;4.18;;;1.95;;
80679;SDS011;70043;51.982;-8.514;2023-06-04T10:57:36;3.50;;;1.92;;
80679;SDS011;70043;51.982;-8.514;2023-06-04T11:00:04;4.18;;;1.83;;
80679;SDS011;70043;51.982;-8.514;2023-06-04T11:02:37;5.75;;;2.45;;
80679;SDS011;70043;51.982;-8.514;2023-06-04T11:05:22;4.07;;;1.80;;
80679;SDS011;70043;51.982;-8.514;2023-06-04T11:07:59;6.53;;;2.08;;
80679;SDS011;70043;51.982;-8.514;2023-06-04T11:10:31;7.50;;;1.90;;
80679;SDS011;70043;51.982;-8.514;2023-06-04T11:15:36;5.35;;;2.47;;
80679;SDS011;70043;51.982;-8.514;2023-06-04T11:18:06;7.75;;;2.08;;
80679;SDS011;70043;51.982;-8.514;2023-06-04T11:20:41;5.63;;;2.00;;
80679;SDS011;70043;51.982;-8.514;2023-06-04T11:23:12;3.28;;;1.58;;
80679;SDS011;70043;51.982;-8.514;2023-06-04T11:25:42;5.75;;;2.30;;
80679;SDS011;70043;51.982;-8.514;2023-06-04T11:28:14;4.80;;;2.30;;
80679;SDS011;70043;51.982;-8.514;2023-06-04T11:30:43;5.07;;;1.88;;
80679;SDS011;70043;51.982;-8.514;2023-06-04T11:33:11;5.88;;;2.42;;
80679;SDS011;70043;51.982;-8.514;2023-06-04T11:35:41;4.95;;;2.20;;
80679;SDS011;70043;51.982;-8.514;2023-06-04T11:38:09;4.20;;;2.10;;
80679;SDS011;70043;51.982;-8.514;2023-06-04T11:40:37;4.90;;;2.05;;
80679;SDS011;70043;51.982;-8.514;2023-06-04T11:43:05;3.10;;;1.60;;
80679;SDS011;70043;51.982;-8.514;2023-06-04T11:45:35;2.80;;;1.80;;
80679;SDS011;70043;51.982;-8.514;2023-06-04T11:48:05;1.92;;;1.48;;
80679;SDS011;70043;51.982;-8.514;2023-06-04T11:50:33;3.63;;;1.30;;
80679;SDS011;70043;51.982;-8.514;2023-06-04T11:53:04;3.15;;;1.40;;
80679;SDS011;70043;51.982;-8.514;2023-06-04T11:55:32;1.75;;;1.40;;
80679;SDS011;70043;51.982;-8.514;2023-06-04T11:58:00;3.05;;;1.90;;
80679;SDS011;70043;51.982;-8.514;2023-06-04T12:00:28;4.95;;;2.00;;
80679;SDS011;70043;51.982;-8.514;2023-06-04T12:02:56;4.35;;;2.13;;
80679;SDS011;70043;51.982;-8.514;2023-06-04T12:05:28;4.95;;;1.83;;
80679;SDS011;70043;51.982;-8.514;2023-06-04T12:08:06;5.03;;;1.90;;
80679;SDS011;70043;51.982;-8.514;2023-06-04T12:10:38;3.05;;;1.85;;
80679;SDS011;70043;51.982;-8.514;2023-06-04T12:13:08;3.97;;;1.67;;
80679;SDS011;70043;51.982;-8.514;2023-06-04T12:15:36;3.15;;;1.70;;
80679;SDS011;70043;51.982;-8.514;2023-06-04T12:18:07;3.80;;;2.00;;
80679;SDS011;70043;51.982;-8.514;2023-06-04T12:20:36;6.05;;;2.10;;
80679;SDS011;70043;51.982;-8.514;2023-06-04T12:23:06;7.43;;;1.88;;
80679;SDS011;70043;51.982;-8.514;2023-06-04T12:25:49;4.85;;;1.77;;
80679;SDS011;70043;51.982;-8.514;2023-06-04T12:30:46;3.30;;;1.50;;
80679;SDS011;70043;51.982;-8.514;2023-06-04T12:33:13;3.92;;;1.58;;
80679;SDS011;70043;51.982;-8.514;2023-06-04T12:35:41;4.57;;;1.80;;
80679;SDS011;70043;51.982;-8.514;2023-06-04T12:38:14;3.47;;;2.05;;
80679;SDS011;70043;51.982;-8.514;2023-06-04T12:40:42;4.03;;;1.88;;
80679;SDS011;70043;51.982;-8.514;2023-06-04T12:43:10;3.47;;;1.65;;
80679;SDS011;70043;51.982;-8.514;2023-06-04T12:45:37;3.45;;;1.83;;
80679;SDS011;70043;51.982;-8.514;2023-06-04T12:48:05;5.30;;;2.53;;
80679;SDS011;70043;51.982;-8.514;2023-06-04T12:50:33;3.17;;;1.90;;
80679;SDS011;70043;51.982;-8.514;2023-06-04T12:53:01;3.67;;;1.67;;
80679;SDS011;70043;51.982;-8.514;2023-06-04T12:55:30;5.10;;;1.83;;
80679;SDS011;70043;51.982;-8.514;2023-06-04T12:57:58;6.43;;;2.72;;
80679;SDS011;70043;51.982;-8.514;2023-06-04T13:00:26;4.00;;;1.67;;
80679;SDS011;70043;51.982;-8.514;2023-06-04T13:02:55;2.42;;;1.83;;
80679;SDS011;70043;51.982;-8.514;2023-06-04T13:05:23;6.63;;;2.40;;
80679;SDS011;70043;51.982;-8.514;2023-06-04T13:07:51;7.40;;;2.38;;
80679;SDS011;70043;51.982;-8.514;2023-06-04T13:10:20;4.20;;;1.77;;
80679;SDS011;70043;51.982;-8.514;2023-06-04T13:12:52;5.72;;;1.85;;
80679;SDS011;70043;51.982;-8.514;2023-06-04T13:15:23;2.78;;;1.35;;
80679;SDS011;70043;51.982;-8.514;2023-06-04T13:17:54;7.63;;;1.83;;
80679;SDS011;70043;51.982;-8.514;2023-06-04T13:20:22;2.55;;;1.55;;
80679;SDS011;70043;51.982;-8.514;2023-06-04T13:22:50;3.60;;;1.52;;
80679;SDS011;70043;51.982;-8.514;2023-06-04T13:25:18;3.35;;;1.60;;
80679;SDS011;70043;51.982;-8.514;2023-06-04T13:27:45;3.53;;;1.58;;
80679;SDS011;70043;51.982;-8.514;2023-06-04T13:30:17;4.97;;;1.73;;
80679;SDS011;70043;51.982;-8.514;2023-06-04T13:32:45;4.38;;;1.50;;
80679;SDS011;70043;51.982;-8.514;2023-06-04T13:35:13;2.50;;;1.40;;
80679;SDS011;70043;51.982;-8.514;2023-06-04T13:37:41;2.78;;;1.70;;
80679;SDS011;70043;51.982;-8.514;2023-06-04T13:40:09;2.22;;;1.27;;
80679;SDS011;70043;51.982;-8.514;2023-06-04T13:42:37;1.92;;;1.33;;
80679;SDS011;70043;51.982;-8.514;2023-06-04T13:45:05;6.22;;;1.27;;
80679;SDS011;70043;51.982;-8.514;2023-06-04T13:47:37;6.68;;;2.05;;
80679;SDS011;70043;51.982;-8.514;2023-06-04T13:50:05;3.35;;;1.67;;
80679;SDS011;70043;51.982;-8.514;2023-06-04T13:52:33;7.57;;;1.50;;
80679;SDS011;70043;51.982;-8.514;2023-06-04T13:55:01;2.90;;;1.50;;
80679;SDS011;70043;51.982;-8.514;2023-06-04T13:57:31;4.40;;;2.00;;
80679;SDS011;70043;51.982;-8.514;2023-06-04T13:59:59;4.68;;;1.88;;
80679;SDS011;70043;51.982;-8.514;2023-06-04T14:02:36;2.85;;;1.42;;
80679;SDS011;70043;51.982;-8.514;2023-06-04T14:05:06;3.50;;;1.85;;
80679;SDS011;70043;51.982;-8.514;2023-06-04T14:07:41;2.70;;;1.60;;
80679;SDS011;70043;51.982;-8.514;2023-06-04T14:10:09;3.08;;;2.05;;
80679;SDS011;70043;51.982;-8.514;2023-06-04T14:12:39;3.72;;;2.22;;
80679;SDS011;70043;51.982;-8.514;2023-06-04T14:15:09;8.18;;;3.70;;
80679;SDS011;70043;51.982;-8.514;2023-06-04T14:17:42;3.55;;;1.92;;
80679;SDS011;70043;51.982;-8.514;2023-06-04T14:20:22;2.35;;;1.45;;
80679;SDS011;70043;51.982;-8.514;2023-06-04T14:22:52;7.53;;;2.80;;
80679;SDS011;70043;51.982;-8.514;2023-06-04T14:28:44;3.50;;;1.73;;
80679;SDS011;70043;51.982;-8.514;2023-06-04T14:31:33;4.20;;;1.80;;
80679;SDS011;70043;51.982;-8.514;2023-06-04T14:40:32;4.65;;;1.38;;
80679;SDS011;70043;51.982;-8.514;2023-06-04T14:43:36;4.85;;;1.50;;
80679;SDS011;70043;51.982;-8.514;2023-06-04T14:46:43;4.35;;;2.10;;
80679;SDS011;70043;51.982;-8.514;2023-06-04T14:52:40;3.38;;;1.35;;
80679;SDS011;70043;51.982;-8.514;2023-06-04T15:02:09;2.05;;;1.30;;
80679;SDS011;70043;51.982;-8.514;2023-06-04T15:05:03;2.70;;;1.38;;
80679;SDS011;70043;51.982;-8.514;2023-06-04T15:07:43;2.80;;;1.40;;
80679;SDS011;70043;51.982;-8.514;2023-06-04T15:10:24;2.42;;;1.75;;
80679;SDS011;70043;51.982;-8.514;2023-06-04T15:16:22;3.35;;;1.40;;
80679;SDS011;70043;51.982;-8.514;2023-06-04T15:19:36;4.20;;;1.40;;
80679;SDS011;70043;51.982;-8.514;2023-06-04T15:22:47;2.33;;;1.27;;